sensor_id;sensor_type;location;lat;lon;timestamp;pressure;altitude;pressure_sealevel;temperature;humidity
61357;BME280;47227;46.752;23.576;2023-11-21T00:01:25;95791.11;;;4.67;94.41
61357;BME280;47227;46.752;23.576;2023-11-21T00:03:53;95789.80;;;4.66;94.76
61357;BME280;47227;46.752;23.576;2023-11-21T00:06:23;95787.85;;;4.63;94.52
61357;BME280;47227;46.752;23.576;2023-11-21T00:08:52;95789.14;;;4.59;94.43
61357;BME280;47227;46.752;23.576;2023-11-21T00:11:20;95780.96;;;4.55;94.56
61357;BME280;47227;46.752;23.576;2023-11-21T00:13:50;95785.32;;;4.55;94.75
61357;BME280;47227;46.752;23.576;2023-11-21T00:16:18;95785.18;;;4.54;94.90
61357;BME280;47227;46.752;23.576;2023-11-21T00:18:47;95783.19;;;4.53;94.84
61357;BME280;47227;46.752;23.576;2023-11-21T00:21:15;95782.72;;;4.49;94.64
61357;BME280;47227;46.752;23.576;2023-11-21T00:23:43;95781.52;;;4.45;94.58
61357;BME280;47227;46.752;23.576;2023-11-21T00:26:12;95782.20;;;4.39;94.58
61357;BME280;47227;46.752;23.576;2023-11-21T00:28:42;95779.86;;;4.37;94.57
61357;BME280;47227;46.752;23.576;2023-11-21T00:31:11;95779.70;;;4.33;94.70
61357;BME280;47227;46.752;23.576;2023-11-21T00:33:40;95783.03;;;4.29;94.80
61357;BME280;47227;46.752;23.576;2023-11-21T00:36:08;95792.54;;;4.25;94.64
61357;BME280;47227;46.752;23.576;2023-11-21T00:38:37;95792.63;;;4.25;94.72
61357;BME280;47227;46.752;23.576;2023-11-21T00:41:09;95788.98;;;4.25;94.48
61357;BME280;47227;46.752;23.576;2023-11-21T00:43:38;95788.62;;;4.26;94.88
61357;BME280;47227;46.752;23.576;2023-11-21T00:46:06;95785.63;;;4.29;94.89
61357;BME280;47227;46.752;23.576;2023-11-21T00:48:36;95782.31;;;4.31;94.86
61357;BME280;47227;46.752;23.576;2023-11-21T00:51:05;95781.08;;;4.34;95.04
61357;BME280;47227;46.752;23.576;2023-11-21T00:53:34;95781.41;;;4.37;95.16
61357;BME280;47227;46.752;23.576;2023-11-21T00:56:02;95782.20;;;4.37;95.32
61357;BME280;47227;46.752;23.576;2023-11-21T00:58:31;95780.23;;;4.38;95.13
61357;BME280;47227;46.752;23.576;2023-11-21T01:00:59;95780.10;;;4.39;95.19
61357;BME280;47227;46.752;23.576;2023-11-21T01:03:28;95780.90;;;4.39;95.00
61357;BME280;47227;46.752;23.576;2023-11-21T01:05:56;95782.80;;;4.43;95.12
61357;BME280;47227;46.752;23.576;2023-11-21T01:08:25;95779.77;;;4.46;95.15
61357;BME280;47227;46.752;23.576;2023-11-21T01:10:53;95783.54;;;4.48;95.22
61357;BME280;47227;46.752;23.576;2023-11-21T01:13:22;95783.14;;;4.51;95.04
61357;BME280;47227;46.752;23.576;2023-11-21T01:15:50;95783.86;;;4.53;95.00
61357;BME280;47227;46.752;23.576;2023-11-21T01:18:20;95781.84;;;4.55;95.06
61357;BME280;47227;46.752;23.576;2023-11-21T01:20:49;95778.64;;;4.59;95.04
61357;BME280;47227;46.752;23.576;2023-11-21T01:23:17;95773.36;;;4.59;94.74
61357;BME280;47227;46.752;23.576;2023-11-21T01:25:46;95777.00;;;4.59;94.82
61357;BME280;47227;46.752;23.576;2023-11-21T01:28:14;95776.48;;;4.62;95.11
61357;BME280;47227;46.752;23.576;2023-11-21T01:30:43;95775.05;;;4.64;95.13
61357;BME280;47227;46.752;23.576;2023-11-21T01:33:13;95779.15;;;4.66;95.22
61357;BME280;47227;46.752;23.576;2023-11-21T01:35:44;95780.80;;;4.66;95.16
61357;BME280;47227;46.752;23.576;2023-11-21T01:38:14;95778.52;;;4.66;95.17
61357;BME280;47227;46.752;23.576;2023-11-21T01:40:43;95778.08;;;4.65;95.13
61357;BME280;47227;46.752;23.576;2023-11-21T01:43:12;95779.61;;;4.64;95.09
61357;BME280;47227;46.752;23.576;2023-11-21T01:45:41;95778.77;;;4.61;94.87
61357;BME280;47227;46.752;23.576;2023-11-21T01:48:09;95784.84;;;4.59;94.83
61357;BME280;47227;46.752;23.576;2023-11-21T01:50:38;95796.06;;;4.55;94.82
61357;BME280;47227;46.752;23.576;2023-11-21T01:53:06;95793.30;;;4.50;94.53
61357;BME280;47227;46.752;23.576;2023-11-21T01:55:35;95795.34;;;4.46;94.54
61357;BME280;47227;46.752;23.576;2023-11-21T01:58:04;95794.05;;;4.42;94.58
61357;BME280;47227;46.752;23.576;2023-11-21T02:00:32;95798.20;;;4.36;94.16
61357;BME280;47227;46.752;23.576;2023-11-21T02:03:02;95796.33;;;4.29;94.13
61357;BME280;47227;46.752;23.576;2023-11-21T02:05:31;95795.73;;;4.25;94.04
61357;BME280;47227;46.752;23.576;2023-11-21T02:07:59;95796.08;;;4.20;94.12
61357;BME280;47227;46.752;23.576;2023-11-21T02:10:30;95795.42;;;4.14;94.01
61357;BME280;47227;46.752;23.576;2023-11-21T02:12:59;95796.02;;;4.08;93.94
61357;BME280;47227;46.752;23.576;2023-11-21T02:15:31;95795.41;;;4.02;93.89
61357;BME280;47227;46.752;23.576;2023-11-21T02:18:00;95796.12;;;3.96;93.77
61357;BME280;47227;46.752;23.576;2023-11-21T02:20:29;95796.39;;;3.90;94.13
61357;BME280;47227;46.752;23.576;2023-11-21T02:22:58;95798.63;;;3.85;94.25
61357;BME280;47227;46.752;23.576;2023-11-21T02:25:30;95797.11;;;3.82;94.30
61357;BME280;47227;46.752;23.576;2023-11-21T02:28:00;95794.10;;;3.82;94.70
61357;BME280;47227;46.752;23.576;2023-11-21T02:30:31;95794.51;;;3.85;94.77
61357;BME280;47227;46.752;23.576;2023-11-21T02:33:02;95790.20;;;3.89;94.91
61357;BME280;47227;46.752;23.576;2023-11-21T02:35:31;95792.98;;;3.94;95.20
61357;BME280;47227;46.752;23.576;2023-11-21T02:38:00;95796.39;;;3.99;95.23
61357;BME280;47227;46.752;23.576;2023-11-21T02:40:29;95796.11;;;4.04;95.15
61357;BME280;47227;46.752;23.576;2023-11-21T02:42:58;95791.62;;;4.09;95.20
61357;BME280;47227;46.752;23.576;2023-11-21T02:45:28;95791.52;;;4.13;95.26
61357;BME280;47227;46.752;23.576;2023-11-21T02:47:57;95787.14;;;4.20;95.41
61357;BME280;47227;46.752;23.576;2023-11-21T02:50:27;95787.48;;;4.24;95.28
61357;BME280;47227;46.752;23.576;2023-11-21T02:52:56;95789.05;;;4.29;95.28
61357;BME280;47227;46.752;23.576;2023-11-21T02:55:27;95793.77;;;4.33;95.48
61357;BME280;47227;46.752;23.576;2023-11-21T02:57:55;95800.11;;;4.37;95.59
61357;BME280;47227;46.752;23.576;2023-11-21T03:00:27;95799.89;;;4.41;95.68
61357;BME280;47227;46.752;23.576;2023-11-21T03:02:56;95799.80;;;4.45;95.57
61357;BME280;47227;46.752;23.576;2023-11-21T03:05:27;95803.90;;;4.49;95.54
61357;BME280;47227;46.752;23.576;2023-11-21T03:07:57;95797.56;;;4.50;95.07
61357;BME280;47227;46.752;23.576;2023-11-21T03:10:26;95798.09;;;4.53;95.24
61357;BME280;47227;46.752;23.576;2023-11-21T03:12:56;95798.59;;;4.52;94.69
61357;BME280;47227;46.752;23.576;2023-11-21T03:15:25;95792.95;;;4.47;94.43
61357;BME280;47227;46.752;23.576;2023-11-21T03:17:54;95787.14;;;4.42;94.26
61357;BME280;47227;46.752;23.576;2023-11-21T03:20:24;95781.31;;;4.35;94.42
61357;BME280;47227;46.752;23.576;2023-11-21T03:22:54;95788.00;;;4.27;94.32
61357;BME280;47227;46.752;23.576;2023-11-21T03:25:22;95792.08;;;4.22;94.46
61357;BME280;47227;46.752;23.576;2023-11-21T03:27:52;95792.06;;;4.15;94.64
61357;BME280;47227;46.752;23.576;2023-11-21T03:30:21;95787.45;;;4.06;94.30
61357;BME280;47227;46.752;23.576;2023-11-21T03:32:50;95780.40;;;3.98;94.39
61357;BME280;47227;46.752;23.576;2023-11-21T03:35:18;95782.78;;;3.89;94.36
61357;BME280;47227;46.752;23.576;2023-11-21T03:37:49;95784.23;;;3.87;94.79
61357;BME280;47227;46.752;23.576;2023-11-21T03:40:17;95783.81;;;3.85;94.83
61357;BME280;47227;46.752;23.576;2023-11-21T03:42:46;95776.41;;;3.83;95.44
61357;BME280;47227;46.752;23.576;2023-11-21T03:45:15;95777.02;;;3.80;95.48
61357;BME280;47227;46.752;23.576;2023-11-21T03:47:43;95790.83;;;3.80;95.57
61357;BME280;47227;46.752;23.576;2023-11-21T03:50:12;95785.38;;;3.78;95.56
61357;BME280;47227;46.752;23.576;2023-11-21T03:52:40;95779.84;;;3.77;95.49
61357;BME280;47227;46.752;23.576;2023-11-21T03:55:09;95776.73;;;3.77;95.41
61357;BME280;47227;46.752;23.576;2023-11-21T03:57:40;95780.11;;;3.77;95.40
61357;BME280;47227;46.752;23.576;2023-11-21T04:00:10;95783.63;;;3.81;95.44
61357;BME280;47227;46.752;23.576;2023-11-21T04:02:38;95786.70;;;3.83;95.84
61357;BME280;47227;46.752;23.576;2023-11-21T04:05:08;95790.63;;;3.86;96.06
61357;BME280;47227;46.752;23.576;2023-11-21T04:07:37;95796.70;;;3.90;96.14
61357;BME280;47227;46.752;23.576;2023-11-21T04:10:07;95792.02;;;3.94;96.08
61357;BME280;47227;46.752;23.576;2023-11-21T04:12:41;95790.56;;;3.99;96.03
61357;BME280;47227;46.752;23.576;2023-11-21T04:15:10;95791.02;;;4.04;96.42
61357;BME280;47227;46.752;23.576;2023-11-21T04:17:39;95792.46;;;4.11;96.24
61357;BME280;47227;46.752;23.576;2023-11-21T04:20:09;95786.29;;;4.15;96.12
61357;BME280;47227;46.752;23.576;2023-11-21T04:22:39;95785.33;;;4.20;96.42
61357;BME280;47227;46.752;23.576;2023-11-21T04:25:15;95787.06;;;4.25;96.34
61357;BME280;47227;46.752;23.576;2023-11-21T04:27:45;95785.98;;;4.26;96.21
61357;BME280;47227;46.752;23.576;2023-11-21T04:30:14;95788.10;;;4.26;96.02
61357;BME280;47227;46.752;23.576;2023-11-21T04:32:43;95787.06;;;4.26;95.88
61357;BME280;47227;46.752;23.576;2023-11-21T04:35:11;95790.18;;;4.29;95.68
61357;BME280;47227;46.752;23.576;2023-11-21T04:37:40;95790.33;;;4.26;95.38
61357;BME280;47227;46.752;23.576;2023-11-21T04:40:09;95786.00;;;4.24;95.39
61357;BME280;47227;46.752;23.576;2023-11-21T04:42:38;95790.39;;;4.25;95.36
61357;BME280;47227;46.752;23.576;2023-11-21T04:45:07;95788.07;;;4.21;95.34
61357;BME280;47227;46.752;23.576;2023-11-21T04:47:40;95785.23;;;4.18;95.36
61357;BME280;47227;46.752;23.576;2023-11-21T04:50:10;95782.36;;;4.18;95.66
61357;BME280;47227;46.752;23.576;2023-11-21T04:52:38;95776.23;;;4.17;95.75
61357;BME280;47227;46.752;23.576;2023-11-21T04:55:07;95773.41;;;4.15;95.63
61357;BME280;47227;46.752;23.576;2023-11-21T04:57:39;95770.50;;;4.09;95.25
61357;BME280;47227;46.752;23.576;2023-11-21T05:00:11;95771.64;;;4.03;95.28
61357;BME280;47227;46.752;23.576;2023-11-21T05:02:40;95773.48;;;3.99;95.29
61357;BME280;47227;46.752;23.576;2023-11-21T05:05:10;95778.48;;;3.92;95.12
61357;BME280;47227;46.752;23.576;2023-11-21T05:07:41;95775.35;;;3.83;94.95
61357;BME280;47227;46.752;23.576;2023-11-21T05:10:11;95781.92;;;3.76;95.16
61357;BME280;47227;46.752;23.576;2023-11-21T05:12:41;95782.83;;;3.69;95.06
61357;BME280;47227;46.752;23.576;2023-11-21T05:15:14;95780.82;;;3.62;94.99
61357;BME280;47227;46.752;23.576;2023-11-21T05:17:43;95785.11;;;3.57;95.04
61357;BME280;47227;46.752;23.576;2023-11-21T05:20:13;95787.45;;;3.51;95.03
61357;BME280;47227;46.752;23.576;2023-11-21T05:22:49;95788.16;;;3.46;95.04
61357;BME280;47227;46.752;23.576;2023-11-21T05:25:18;95792.45;;;3.44;95.11
61357;BME280;47227;46.752;23.576;2023-11-21T05:27:47;95790.25;;;3.41;94.92
61357;BME280;47227;46.752;23.576;2023-11-21T05:30:15;95789.52;;;3.38;94.91
61357;BME280;47227;46.752;23.576;2023-11-21T05:32:44;95792.41;;;3.35;94.75
61357;BME280;47227;46.752;23.576;2023-11-21T05:35:15;95791.34;;;3.32;94.57
61357;BME280;47227;46.752;23.576;2023-11-21T05:37:46;95791.48;;;3.31;94.52
61357;BME280;47227;46.752;23.576;2023-11-21T05:40:15;95797.14;;;3.29;94.61
61357;BME280;47227;46.752;23.576;2023-11-21T05:42:44;95795.72;;;3.30;94.72
61357;BME280;47227;46.752;23.576;2023-11-21T05:45:13;95802.48;;;3.31;94.72
61357;BME280;47227;46.752;23.576;2023-11-21T05:47:44;95800.18;;;3.32;94.75
61357;BME280;47227;46.752;23.576;2023-11-21T05:50:16;95796.80;;;3.33;94.67
61357;BME280;47227;46.752;23.576;2023-11-21T05:52:46;95795.67;;;3.32;94.83
61357;BME280;47227;46.752;23.576;2023-11-21T05:55:15;95798.90;;;3.32;95.03
61357;BME280;47227;46.752;23.576;2023-11-21T05:57:44;95801.46;;;3.36;95.37
61357;BME280;47227;46.752;23.576;2023-11-21T06:00:14;95801.77;;;3.40;95.34
61357;BME280;47227;46.752;23.576;2023-11-21T06:02:49;95806.98;;;3.42;95.42
61357;BME280;47227;46.752;23.576;2023-11-21T06:05:21;95810.05;;;3.43;95.19
61357;BME280;47227;46.752;23.576;2023-11-21T06:07:53;95815.67;;;3.43;95.14
61357;BME280;47227;46.752;23.576;2023-11-21T06:10:22;95818.61;;;3.44;95.15
61357;BME280;47227;46.752;23.576;2023-11-21T06:12:52;95817.92;;;3.50;95.18
61357;BME280;47227;46.752;23.576;2023-11-21T06:15:21;95818.42;;;3.52;95.41
61357;BME280;47227;46.752;23.576;2023-11-21T06:17:51;95815.84;;;3.52;95.48
61357;BME280;47227;46.752;23.576;2023-11-21T06:20:21;95819.54;;;3.53;95.48
61357;BME280;47227;46.752;23.576;2023-11-21T06:22:51;95826.23;;;3.53;95.61
61357;BME280;47227;46.752;23.576;2023-11-21T06:25:20;95825.85;;;3.50;95.39
61357;BME280;47227;46.752;23.576;2023-11-21T06:27:50;95825.46;;;3.45;95.45
61357;BME280;47227;46.752;23.576;2023-11-21T06:30:20;95828.05;;;3.41;95.41
61357;BME280;47227;46.752;23.576;2023-11-21T06:32:50;95832.36;;;3.37;95.34
61357;BME280;47227;46.752;23.576;2023-11-21T06:35:19;95840.98;;;3.32;94.98
61357;BME280;47227;46.752;23.576;2023-11-21T06:37:48;95842.54;;;3.27;94.91
61357;BME280;47227;46.752;23.576;2023-11-21T06:40:18;95844.04;;;3.23;94.87
61357;BME280;47227;46.752;23.576;2023-11-21T06:42:49;95849.05;;;3.19;94.82
61357;BME280;47227;46.752;23.576;2023-11-21T06:45:19;95853.44;;;3.17;95.04
61357;BME280;47227;46.752;23.576;2023-11-21T06:47:48;95852.31;;;3.18;95.26
61357;BME280;47227;46.752;23.576;2023-11-21T06:50:18;95855.63;;;3.19;95.22
61357;BME280;47227;46.752;23.576;2023-11-21T06:52:46;95850.48;;;3.19;95.45
61357;BME280;47227;46.752;23.576;2023-11-21T06:55:15;95847.94;;;3.18;95.48
61357;BME280;47227;46.752;23.576;2023-11-21T06:57:44;95851.63;;;3.19;95.54
61357;BME280;47227;46.752;23.576;2023-11-21T07:00:15;95855.11;;;3.18;95.45
61357;BME280;47227;46.752;23.576;2023-11-21T07:02:48;95856.11;;;3.12;95.38
61357;BME280;47227;46.752;23.576;2023-11-21T07:05:17;95854.98;;;3.12;95.66
61357;BME280;47227;46.752;23.576;2023-11-21T07:07:49;95853.05;;;3.15;95.60
61357;BME280;47227;46.752;23.576;2023-11-21T07:10:19;95855.13;;;3.17;96.15
61357;BME280;47227;46.752;23.576;2023-11-21T07:12:47;95860.40;;;3.18;96.39
61357;BME280;47227;46.752;23.576;2023-11-21T07:15:16;95867.15;;;3.23;96.38
61357;BME280;47227;46.752;23.576;2023-11-21T07:17:45;95869.34;;;3.30;96.45
61357;BME280;47227;46.752;23.576;2023-11-21T07:20:14;95860.70;;;3.39;96.84
61357;BME280;47227;46.752;23.576;2023-11-21T07:22:45;95854.92;;;3.42;96.72
61357;BME280;47227;46.752;23.576;2023-11-21T07:25:14;95856.29;;;3.41;96.64
61357;BME280;47227;46.752;23.576;2023-11-21T07:27:43;95845.01;;;3.36;96.61
61357;BME280;47227;46.752;23.576;2023-11-21T07:30:12;95846.23;;;3.37;96.73
61357;BME280;47227;46.752;23.576;2023-11-21T07:32:41;95843.64;;;3.42;97.10
61357;BME280;47227;46.752;23.576;2023-11-21T07:35:10;95843.37;;;3.51;96.97
61357;BME280;47227;46.752;23.576;2023-11-21T07:37:39;95838.41;;;3.56;97.06
61357;BME280;47227;46.752;23.576;2023-11-21T07:40:08;95835.57;;;3.57;96.68
61357;BME280;47227;46.752;23.576;2023-11-21T07:42:37;95835.92;;;3.58;96.55
61357;BME280;47227;46.752;23.576;2023-11-21T07:45:07;95845.10;;;3.62;96.44
61357;BME280;47227;46.752;23.576;2023-11-21T07:47:36;95846.89;;;3.71;96.98
61357;BME280;47227;46.752;23.576;2023-11-21T07:50:05;95843.56;;;3.81;97.26
61357;BME280;47227;46.752;23.576;2023-11-21T07:52:35;95843.89;;;3.82;96.20
61357;BME280;47227;46.752;23.576;2023-11-21T07:55:04;95842.91;;;3.76;95.57
61357;BME280;47227;46.752;23.576;2023-11-21T07:57:33;95841.07;;;3.79;95.96
61357;BME280;47227;46.752;23.576;2023-11-21T08:00:01;95846.06;;;3.87;96.50
61357;BME280;47227;46.752;23.576;2023-11-21T08:02:39;95844.67;;;3.98;96.76
61357;BME280;47227;46.752;23.576;2023-11-21T08:05:12;95836.39;;;4.04;96.42
61357;BME280;47227;46.752;23.576;2023-11-21T08:07:51;95835.98;;;4.08;96.11
61357;BME280;47227;46.752;23.576;2023-11-21T08:10:20;95834.58;;;4.12;96.03
61357;BME280;47227;46.752;23.576;2023-11-21T08:12:50;95841.15;;;4.17;96.02
61357;BME280;47227;46.752;23.576;2023-11-21T08:15:19;95843.23;;;4.21;95.81
61357;BME280;47227;46.752;23.576;2023-11-21T08:17:48;95846.60;;;4.23;95.61
61357;BME280;47227;46.752;23.576;2023-11-21T08:20:17;95848.41;;;4.29;95.86
61357;BME280;47227;46.752;23.576;2023-11-21T08:22:46;95848.76;;;4.37;95.63
61357;BME280;47227;46.752;23.576;2023-11-21T08:25:16;95854.13;;;4.42;95.76
61357;BME280;47227;46.752;23.576;2023-11-21T08:27:48;95856.97;;;4.51;96.01
61357;BME280;47227;46.752;23.576;2023-11-21T08:30:17;95861.04;;;4.59;96.15
61357;BME280;47227;46.752;23.576;2023-11-21T08:32:48;95859.73;;;4.66;96.19
61357;BME280;47227;46.752;23.576;2023-11-21T08:35:16;95862.45;;;4.75;96.22
61357;BME280;47227;46.752;23.576;2023-11-21T08:37:45;95857.60;;;4.81;95.91
61357;BME280;47227;46.752;23.576;2023-11-21T08:40:13;95858.98;;;4.84;95.70
61357;BME280;47227;46.752;23.576;2023-11-21T08:42:46;95855.72;;;4.88;95.61
61357;BME280;47227;46.752;23.576;2023-11-21T08:45:15;95862.15;;;4.98;95.72
61357;BME280;47227;46.752;23.576;2023-11-21T08:47:45;95864.60;;;5.00;95.34
61357;BME280;47227;46.752;23.576;2023-11-21T08:50:14;95863.80;;;5.06;95.39
61357;BME280;47227;46.752;23.576;2023-11-21T08:52:44;95865.80;;;5.09;95.30
61357;BME280;47227;46.752;23.576;2023-11-21T08:55:14;95867.52;;;5.11;95.14
61357;BME280;47227;46.752;23.576;2023-11-21T08:57:44;95863.46;;;5.15;95.07
61357;BME280;47227;46.752;23.576;2023-11-21T09:00:14;95858.93;;;5.11;94.43
61357;BME280;47227;46.752;23.576;2023-11-21T09:02:45;95858.77;;;5.06;94.34
61357;BME280;47227;46.752;23.576;2023-11-21T09:05:14;95866.98;;;5.05;94.62
61357;BME280;47227;46.752;23.576;2023-11-21T09:07:44;95869.63;;;5.10;94.80
61357;BME280;47227;46.752;23.576;2023-11-21T09:10:14;95869.12;;;5.08;94.39
61357;BME280;47227;46.752;23.576;2023-11-21T09:12:43;95871.61;;;5.21;95.07
61357;BME280;47227;46.752;23.576;2023-11-21T09:15:11;95861.52;;;5.33;94.88
61357;BME280;47227;46.752;23.576;2023-11-21T09:17:40;95861.89;;;5.45;95.12
61357;BME280;47227;46.752;23.576;2023-11-21T09:20:09;95859.61;;;5.50;94.97
61357;BME280;47227;46.752;23.576;2023-11-21T09:22:39;95858.59;;;5.53;94.80
61357;BME280;47227;46.752;23.576;2023-11-21T09:25:09;95855.19;;;5.61;94.92
61357;BME280;47227;46.752;23.576;2023-11-21T09:27:37;95852.09;;;5.70;95.20
61357;BME280;47227;46.752;23.576;2023-11-21T09:30:07;95842.91;;;5.78;95.16
61357;BME280;47227;46.752;23.576;2023-11-21T09:32:39;95843.08;;;5.90;95.29
61357;BME280;47227;46.752;23.576;2023-11-21T09:35:09;95848.44;;;6.03;95.24
61357;BME280;47227;46.752;23.576;2023-11-21T09:37:40;95851.55;;;6.08;94.67
61357;BME280;47227;46.752;23.576;2023-11-21T09:40:10;95848.48;;;6.12;94.44
61357;BME280;47227;46.752;23.576;2023-11-21T09:42:57;95849.73;;;6.11;93.82
61357;BME280;47227;46.752;23.576;2023-11-21T09:45:32;95844.95;;;6.14;93.77
61357;BME280;47227;46.752;23.576;2023-11-21T09:48:03;95838.59;;;6.18;94.02
61357;BME280;47227;46.752;23.576;2023-11-21T09:50:35;95836.36;;;6.30;94.21
61357;BME280;47227;46.752;23.576;2023-11-21T09:53:18;95832.28;;;6.32;93.13
61357;BME280;47227;46.752;23.576;2023-11-21T09:55:52;95830.48;;;6.27;93.00
61357;BME280;47227;46.752;23.576;2023-11-21T09:58:21;95830.02;;;6.31;93.24
61357;BME280;47227;46.752;23.576;2023-11-21T10:00:55;95834.40;;;6.31;92.97
61357;BME280;47227;46.752;23.576;2023-11-21T10:03:26;95832.34;;;6.29;92.54
61357;BME280;47227;46.752;23.576;2023-11-21T10:05:56;95833.69;;;6.21;91.78
61357;BME280;47227;46.752;23.576;2023-11-21T10:08:27;95839.45;;;6.17;92.31
61357;BME280;47227;46.752;23.576;2023-11-21T10:11:14;95836.25;;;6.17;91.93
61357;BME280;47227;46.752;23.576;2023-11-21T10:13:45;95834.05;;;6.11;91.59
61357;BME280;47227;46.752;23.576;2023-11-21T10:16:16;95829.85;;;6.04;91.35
61357;BME280;47227;46.752;23.576;2023-11-21T10:18:52;95829.27;;;5.95;91.69
61357;BME280;47227;46.752;23.576;2023-11-21T10:21:40;95830.98;;;5.89;91.87
61357;BME280;47227;46.752;23.576;2023-11-21T10:24:08;95824.50;;;5.86;91.71
61357;BME280;47227;46.752;23.576;2023-11-21T10:26:37;95819.65;;;5.86;92.30
61357;BME280;47227;46.752;23.576;2023-11-21T10:29:20;95818.03;;;5.87;92.78
61357;BME280;47227;46.752;23.576;2023-11-21T10:31:52;95819.85;;;5.93;92.90
61357;BME280;47227;46.752;23.576;2023-11-21T10:34:23;95818.43;;;5.95;92.85
61357;BME280;47227;46.752;23.576;2023-11-21T10:36:52;95816.10;;;5.98;92.83
61357;BME280;47227;46.752;23.576;2023-11-21T10:39:21;95809.74;;;6.01;92.73
61357;BME280;47227;46.752;23.576;2023-11-21T10:41:53;95811.38;;;6.02;92.78
61357;BME280;47227;46.752;23.576;2023-11-21T10:44:23;95806.20;;;6.06;92.78
61357;BME280;47227;46.752;23.576;2023-11-21T10:46:54;95805.09;;;6.13;92.83
61357;BME280;47227;46.752;23.576;2023-11-21T10:49:27;95803.72;;;6.17;92.66
61357;BME280;47227;46.752;23.576;2023-11-21T10:51:56;95801.00;;;6.25;92.85
61357;BME280;47227;46.752;23.576;2023-11-21T10:54:26;95801.27;;;6.36;92.82
61357;BME280;47227;46.752;23.576;2023-11-21T10:57:00;95802.80;;;6.46;93.35
61357;BME280;47227;46.752;23.576;2023-11-21T10:59:30;95800.86;;;6.57;93.11
61357;BME280;47227;46.752;23.576;2023-11-21T11:02:09;95799.50;;;6.62;92.74
61357;BME280;47227;46.752;23.576;2023-11-21T11:04:49;95800.77;;;6.63;92.46
61357;BME280;47227;46.752;23.576;2023-11-21T11:07:21;95808.61;;;6.62;92.00
61357;BME280;47227;46.752;23.576;2023-11-21T11:09:52;95812.31;;;6.59;91.80
61357;BME280;47227;46.752;23.576;2023-11-21T11:12:21;95808.36;;;6.62;92.10
61357;BME280;47227;46.752;23.576;2023-11-21T11:14:52;95805.95;;;6.61;91.34
61357;BME280;47227;46.752;23.576;2023-11-21T11:17:21;95807.45;;;6.55;91.02
61357;BME280;47227;46.752;23.576;2023-11-21T11:19:50;95809.80;;;6.47;90.79
61357;BME280;47227;46.752;23.576;2023-11-21T11:22:30;95810.11;;;6.36;90.92
61357;BME280;47227;46.752;23.576;2023-11-21T11:28:07;95812.60;;;6.24;91.23
61357;BME280;47227;46.752;23.576;2023-11-21T11:36:22;95797.96;;;6.19;91.62
61357;BME280;47227;46.752;23.576;2023-11-21T11:38:53;95794.83;;;6.13;91.45
61357;BME280;47227;46.752;23.576;2023-11-21T11:41:30;95792.20;;;6.10;91.60
61357;BME280;47227;46.752;23.576;2023-11-21T11:44:00;95794.19;;;6.07;91.75
61357;BME280;47227;46.752;23.576;2023-11-21T11:46:43;95795.42;;;6.06;91.99
61357;BME280;47227;46.752;23.576;2023-11-21T11:49:24;95791.96;;;6.08;92.56
61357;BME280;47227;46.752;23.576;2023-11-21T11:55:02;95791.79;;;6.09;92.70
61357;BME280;47227;46.752;23.576;2023-11-21T11:57:34;95785.77;;;6.11;93.00
61357;BME280;47227;46.752;23.576;2023-11-21T12:00:13;95778.70;;;6.14;93.38
61357;BME280;47227;46.752;23.576;2023-11-21T12:02:46;95773.70;;;6.16;93.16
61357;BME280;47227;46.752;23.576;2023-11-21T12:05:20;95775.30;;;6.18;93.11
61357;BME280;47227;46.752;23.576;2023-11-21T12:07:50;95775.41;;;6.18;93.29
61357;BME280;47227;46.752;23.576;2023-11-21T12:10:27;95776.03;;;6.19;93.28
61357;BME280;47227;46.752;23.576;2023-11-21T12:13:05;95778.84;;;6.18;93.30
61357;BME280;47227;46.752;23.576;2023-11-21T12:15:39;95783.43;;;6.21;93.12
61357;BME280;47227;46.752;23.576;2023-11-21T12:18:10;95786.16;;;6.23;93.39
61357;BME280;47227;46.752;23.576;2023-11-21T12:20:39;95788.56;;;6.25;93.34
61357;BME280;47227;46.752;23.576;2023-11-21T12:23:09;95782.83;;;6.27;93.53
61357;BME280;47227;46.752;23.576;2023-11-21T12:25:40;95783.69;;;6.29;93.59
61357;BME280;47227;46.752;23.576;2023-11-21T12:28:11;95782.79;;;6.34;93.91
61357;BME280;47227;46.752;23.576;2023-11-21T12:30:40;95780.20;;;6.37;93.24
61357;BME280;47227;46.752;23.576;2023-11-21T12:33:09;95773.90;;;6.38;93.25
61357;BME280;47227;46.752;23.576;2023-11-21T12:35:38;95767.45;;;6.38;92.97
61357;BME280;47227;46.752;23.576;2023-11-21T12:38:07;95764.69;;;6.35;92.88
61357;BME280;47227;46.752;23.576;2023-11-21T12:40:37;95764.10;;;6.35;92.80
61357;BME280;47227;46.752;23.576;2023-11-21T12:43:07;95771.16;;;6.31;92.88
61357;BME280;47227;46.752;23.576;2023-11-21T12:45:37;95779.98;;;6.32;92.76
61357;BME280;47227;46.752;23.576;2023-11-21T12:48:07;95776.87;;;6.30;92.35
61357;BME280;47227;46.752;23.576;2023-11-21T12:50:38;95783.05;;;6.25;92.60
61357;BME280;47227;46.752;23.576;2023-11-21T12:53:09;95787.91;;;6.26;92.74
61357;BME280;47227;46.752;23.576;2023-11-21T12:55:40;95785.98;;;6.26;92.63
61357;BME280;47227;46.752;23.576;2023-11-21T12:58:11;95784.36;;;6.21;92.31
61357;BME280;47227;46.752;23.576;2023-11-21T13:00:46;95780.87;;;6.18;92.45
61357;BME280;47227;46.752;23.576;2023-11-21T13:03:17;95778.15;;;6.20;92.81
61357;BME280;47227;46.752;23.576;2023-11-21T13:05:48;95775.02;;;6.20;92.77
61357;BME280;47227;46.752;23.576;2023-11-21T13:08:24;95773.63;;;6.18;92.74
61357;BME280;47227;46.752;23.576;2023-11-21T13:10:55;95768.96;;;6.16;93.09
61357;BME280;47227;46.752;23.576;2023-11-21T13:13:28;95763.60;;;6.16;93.28
61357;BME280;47227;46.752;23.576;2023-11-21T13:16:00;95757.45;;;6.17;93.48
61357;BME280;47227;46.752;23.576;2023-11-21T13:18:30;95759.09;;;6.17;93.40
61357;BME280;47227;46.752;23.576;2023-11-21T13:21:04;95759.30;;;6.17;93.27
61357;BME280;47227;46.752;23.576;2023-11-21T13:23:40;95762.62;;;6.17;93.47
61357;BME280;47227;46.752;23.576;2023-11-21T13:26:09;95766.00;;;6.20;93.74
61357;BME280;47227;46.752;23.576;2023-11-21T13:28:38;95764.77;;;6.23;93.67